sensor_id;sensor_type;location;lat;lon;timestamp;pressure;altitude;pressure_sealevel;temperature;humidity
81151;BME280;70629;-26.026;27.976;2023-12-20T00:00:09;86527.22;;;21.68;67.53
81151;BME280;70629;-26.026;27.976;2023-12-20T00:00:49;86526.53;;;21.68;68.18
81151;BME280;70629;-26.026;27.976;2023-12-20T00:01:29;86531.53;;;21.89;67.66
81151;BME280;70629;-26.026;27.976;2023-12-20T00:02:09;86519.91;;;21.91;67.03
81151;BME280;70629;-26.026;27.976;2023-12-20T00:02:49;86531.41;;;21.77;66.83
81151;BME280;70629;-26.026;27.976;2023-12-20T00:03:28;86525.84;;;21.69;67.86
81151;BME280;70629;-26.026;27.976;2023-12-20T00:04:20;86536.00;;;21.59;68.38
81151;BME280;70629;-26.026;27.976;2023-12-20T00:05:00;86529.94;;;21.68;68.49
81151;BME280;70629;-26.026;27.976;2023-12-20T00:05:40;86535.25;;;21.54;68.55
81151;BME280;70629;-26.026;27.976;2023-12-20T00:06:20;86534.63;;;21.58;68.32
81151;BME280;70629;-26.026;27.976;2023-12-20T00:07:00;86531.88;;;21.58;68.58
81151;BME280;70629;-26.026;27.976;2023-12-20T00:07:41;86527.09;;;21.56;68.33
81151;BME280;70629;-26.026;27.976;2023-12-20T00:08:21;86522.56;;;21.83;67.63
81151;BME280;70629;-26.026;27.976;2023-12-20T00:09:01;86521.81;;;21.74;67.29
81151;BME280;70629;-26.026;27.976;2023-12-20T00:09:41;86510.00;;;21.60;68.10
81151;BME280;70629;-26.026;27.976;2023-12-20T00:10:20;86513.44;;;21.62;68.34
81151;BME280;70629;-26.026;27.976;2023-12-20T00:11:00;86506.59;;;21.59;68.18
81151;BME280;70629;-26.026;27.976;2023-12-20T00:11:40;86508.69;;;21.65;68.25
81151;BME280;70629;-26.026;27.976;2023-12-20T00:12:21;86522.44;;;21.71;68.35
81151;BME280;70629;-26.026;27.976;2023-12-20T00:13:01;86520.03;;;21.37;68.93
81151;BME280;70629;-26.026;27.976;2023-12-20T00:13:41;86525.50;;;21.37;69.21
81151;BME280;70629;-26.026;27.976;2023-12-20T00:14:20;86525.72;;;21.57;68.59
81151;BME280;70629;-26.026;27.976;2023-12-20T00:15:00;86524.59;;;21.78;67.61
81151;BME280;70629;-26.026;27.976;2023-12-20T00:15:40;86520.44;;;21.75;67.49
81151;BME280;70629;-26.026;27.976;2023-12-20T00:16:20;86523.81;;;21.72;68.06
81151;BME280;70629;-26.026;27.976;2023-12-20T00:17:00;86519.84;;;21.83;67.58
81151;BME280;70629;-26.026;27.976;2023-12-20T00:17:39;86513.63;;;21.80;67.66
81151;BME280;70629;-26.026;27.976;2023-12-20T00:18:20;86512.28;;;21.79;67.84
81151;BME280;70629;-26.026;27.976;2023-12-20T00:19:00;86524.66;;;21.84;67.63
81151;BME280;70629;-26.026;27.976;2023-12-20T00:19:40;86524.66;;;21.84;67.59
81151;BME280;70629;-26.026;27.976;2023-12-20T00:20:20;86521.84;;;21.78;67.59
81151;BME280;70629;-26.026;27.976;2023-12-20T00:20:59;86525.91;;;21.75;67.75
81151;BME280;70629;-26.026;27.976;2023-12-20T00:21:39;86528.56;;;21.65;68.22
81151;BME280;70629;-26.026;27.976;2023-12-20T00:22:19;86534.06;;;21.71;68.23
81151;BME280;70629;-26.026;27.976;2023-12-20T00:22:59;86535.38;;;21.66;67.87
81151;BME280;70629;-26.026;27.976;2023-12-20T00:23:39;86537.59;;;21.78;67.39
81151;BME280;70629;-26.026;27.976;2023-12-20T00:24:19;86537.47;;;21.68;67.74
81151;BME280;70629;-26.026;27.976;2023-12-20T00:24:59;86541.50;;;21.63;67.92
81151;BME280;70629;-26.026;27.976;2023-12-20T00:25:39;86553.03;;;21.51;68.34
81151;BME280;70629;-26.026;27.976;2023-12-20T00:26:19;86560.03;;;21.66;68.11
81151;BME280;70629;-26.026;27.976;2023-12-20T00:26:59;86567.75;;;21.82;67.56
81151;BME280;70629;-26.026;27.976;2023-12-20T00:27:38;86569.81;;;21.85;67.66
81151;BME280;70629;-26.026;27.976;2023-12-20T00:28:19;86590.56;;;21.99;67.38
81151;BME280;70629;-26.026;27.976;2023-12-20T00:28:58;86598.59;;;21.84;67.57
81151;BME280;70629;-26.026;27.976;2023-12-20T00:29:38;86614.16;;;21.72;67.54
81151;BME280;70629;-26.026;27.976;2023-12-20T00:30:18;86625.34;;;21.36;68.13
81151;BME280;70629;-26.026;27.976;2023-12-20T00:30:58;86631.78;;;21.59;68.08
81151;BME280;70629;-26.026;27.976;2023-12-20T00:31:38;86635.31;;;21.65;67.98
81151;BME280;70629;-26.026;27.976;2023-12-20T00:32:18;86640.09;;;21.65;67.73
81151;BME280;70629;-26.026;27.976;2023-12-20T00:32:58;86641.31;;;21.54;67.26
81151;BME280;70629;-26.026;27.976;2023-12-20T00:33:38;86637.97;;;21.59;67.60
81151;BME280;70629;-26.026;27.976;2023-12-20T00:34:19;86630.31;;;21.50;67.95
81151;BME280;70629;-26.026;27.976;2023-12-20T00:34:59;86620.28;;;21.68;67.32
81151;BME280;70629;-26.026;27.976;2023-12-20T00:35:39;86617.59;;;21.72;66.57
81151;BME280;70629;-26.026;27.976;2023-12-20T00:36:18;86609.63;;;21.93;66.05
81151;BME280;70629;-26.026;27.976;2023-12-20T00:36:58;86604.06;;;21.84;66.30
81151;BME280;70629;-26.026;27.976;2023-12-20T00:37:38;86596.53;;;21.87;66.02
81151;BME280;70629;-26.026;27.976;2023-12-20T00:38:18;86599.84;;;21.77;66.04
81151;BME280;70629;-26.026;27.976;2023-12-20T00:38:58;86591.56;;;21.69;65.91
81151;BME280;70629;-26.026;27.976;2023-12-20T00:39:38;86601.38;;;21.90;65.80
81151;BME280;70629;-26.026;27.976;2023-12-20T00:40:18;86606.19;;;21.92;65.75
81151;BME280;70629;-26.026;27.976;2023-12-20T00:40:57;86602.94;;;22.06;65.79
81151;BME280;70629;-26.026;27.976;2023-12-20T00:41:37;86624.34;;;22.23;65.49
81151;BME280;70629;-26.026;27.976;2023-12-20T00:42:17;86625.50;;;22.02;65.80
81151;BME280;70629;-26.026;27.976;2023-12-20T00:42:57;86627.47;;;21.96;65.96
81151;BME280;70629;-26.026;27.976;2023-12-20T00:43:37;86626.19;;;22.05;65.44
81151;BME280;70629;-26.026;27.976;2023-12-20T00:44:16;86631.50;;;21.90;65.92
81151;BME280;70629;-26.026;27.976;2023-12-20T00:44:56;86631.72;;;22.09;65.81
81151;BME280;70629;-26.026;27.976;2023-12-20T00:45:37;86626.06;;;21.93;66.45
81151;BME280;70629;-26.026;27.976;2023-12-20T00:46:17;86629.09;;;22.17;65.31
81151;BME280;70629;-26.026;27.976;2023-12-20T00:46:57;86615.47;;;22.25;64.89
81151;BME280;70629;-26.026;27.976;2023-12-20T00:47:37;86612.81;;;22.33;64.50
81151;BME280;70629;-26.026;27.976;2023-12-20T00:48:17;86610.72;;;22.29;64.42
81151;BME280;70629;-26.026;27.976;2023-12-20T00:48:57;86608.00;;;22.31;64.21
81151;BME280;70629;-26.026;27.976;2023-12-20T00:49:36;86607.41;;;22.43;64.08
81151;BME280;70629;-26.026;27.976;2023-12-20T00:50:16;86604.56;;;22.31;64.16
81151;BME280;70629;-26.026;27.976;2023-12-20T00:50:57;86605.84;;;22.22;64.64
81151;BME280;70629;-26.026;27.976;2023-12-20T00:51:37;86613.53;;;22.36;64.37
81151;BME280;70629;-26.026;27.976;2023-12-20T00:52:17;86607.41;;;22.43;64.05
81151;BME280;70629;-26.026;27.976;2023-12-20T00:52:57;86615.59;;;22.39;63.91
81151;BME280;70629;-26.026;27.976;2023-12-20T00:53:37;86618.25;;;22.29;64.65
81151;BME280;70629;-26.026;27.976;2023-12-20T00:54:16;86618.31;;;22.37;64.43
81151;BME280;70629;-26.026;27.976;2023-12-20T00:54:56;86618.97;;;22.31;64.48
81151;BME280;70629;-26.026;27.976;2023-12-20T00:55:36;86614.22;;;22.36;64.71
81151;BME280;70629;-26.026;27.976;2023-12-20T00:56:16;86616.91;;;22.32;64.44
81151;BME280;70629;-26.026;27.976;2023-12-20T00:56:56;86612.91;;;22.41;64.20
81151;BME280;70629;-26.026;27.976;2023-12-20T00:57:35;86616.88;;;22.30;64.71
81151;BME280;70629;-26.026;27.976;2023-12-20T00:58:15;86608.78;;;22.40;64.44
81151;BME280;70629;-26.026;27.976;2023-12-20T00:58:55;86604.75;;;22.49;64.50
81151;BME280;70629;-26.026;27.976;2023-12-20T00:59:35;86605.88;;;22.24;64.75
81151;BME280;70629;-26.026;27.976;2023-12-20T01:00:15;86601.66;;;22.13;65.73
81151;BME280;70629;-26.026;27.976;2023-12-20T01:00:55;86613.19;;;22.05;65.93
81151;BME280;70629;-26.026;27.976;2023-12-20T01:01:35;86601.69;;;22.17;65.46
81151;BME280;70629;-26.026;27.976;2023-12-20T01:02:15;86609.88;;;22.13;65.68
81151;BME280;70629;-26.026;27.976;2023-12-20T01:02:55;86603.06;;;22.18;65.63
81151;BME280;70629;-26.026;27.976;2023-12-20T01:03:34;86604.47;;;22.21;65.32
81151;BME280;70629;-26.026;27.976;2023-12-20T01:04:14;86600.78;;;21.94;65.75
81151;BME280;70629;-26.026;27.976;2023-12-20T01:04:55;86601.59;;;22.09;65.90
81151;BME280;70629;-26.026;27.976;2023-12-20T01:05:35;86604.44;;;22.17;65.58
81151;BME280;70629;-26.026;27.976;2023-12-20T01:06:15;86597.69;;;22.26;65.17
81151;BME280;70629;-26.026;27.976;2023-12-20T01:06:55;86596.28;;;22.25;65.79
81151;BME280;70629;-26.026;27.976;2023-12-20T01:07:35;86592.19;;;22.26;65.35
81151;BME280;70629;-26.026;27.976;2023-12-20T01:08:15;86593.50;;;22.23;65.63
81151;BME280;70629;-26.026;27.976;2023-12-20T01:08:54;86594.75;;;22.10;65.62
81151;BME280;70629;-26.026;27.976;2023-12-20T01:09:34;86587.28;;;22.14;65.67
81151;BME280;70629;-26.026;27.976;2023-12-20T01:10:14;86595.63;;;22.26;65.27
81151;BME280;70629;-26.026;27.976;2023-12-20T01:10:54;86589.34;;;22.18;65.84
81151;BME280;70629;-26.026;27.976;2023-12-20T01:11:34;86591.50;;;22.27;65.35
81151;BME280;70629;-26.026;27.976;2023-12-20T01:12:14;86598.44;;;22.35;64.84
81151;BME280;70629;-26.026;27.976;2023-12-20T01:12:54;86592.97;;;22.35;65.19
81151;BME280;70629;-26.026;27.976;2023-12-20T01:13:33;86590.88;;;22.31;65.40
81151;BME280;70629;-26.026;27.976;2023-12-20T01:14:13;86599.00;;;22.23;65.93
81151;BME280;70629;-26.026;27.976;2023-12-20T01:14:53;86597.50;;;22.10;65.67
81151;BME280;70629;-26.026;27.976;2023-12-20T01:15:33;86594.94;;;22.28;65.88
81151;BME280;70629;-26.026;27.976;2023-12-20T01:16:13;86594.94;;;22.28;65.80
81151;BME280;70629;-26.026;27.976;2023-12-20T01:16:52;86587.94;;;22.11;66.45
81151;BME280;70629;-26.026;27.976;2023-12-20T01:17:33;86587.19;;;22.08;67.04
81151;BME280;70629;-26.026;27.976;2023-12-20T01:18:13;86594.09;;;22.11;66.46
81151;BME280;70629;-26.026;27.976;2023-12-20T01:18:53;86587.84;;;22.05;66.71
81151;BME280;70629;-26.026;27.976;2023-12-20T01:19:33;86593.44;;;22.13;66.26
81151;BME280;70629;-26.026;27.976;2023-12-20T01:20:13;86589.41;;;22.24;66.56
81151;BME280;70629;-26.026;27.976;2023-12-20T01:20:54;86596.19;;;22.13;66.55
81151;BME280;70629;-26.026;27.976;2023-12-20T01:21:33;86592.22;;;22.32;65.70
81151;BME280;70629;-26.026;27.976;2023-12-20T01:22:13;86590.28;;;22.41;65.09
81151;BME280;70629;-26.026;27.976;2023-12-20T01:22:53;86583.22;;;22.19;66.28
81151;BME280;70629;-26.026;27.976;2023-12-20T01:23:33;86587.22;;;22.10;66.20
81151;BME280;70629;-26.026;27.976;2023-12-20T01:24:13;86579.59;;;22.01;67.39
81151;BME280;70629;-26.026;27.976;2023-12-20T01:24:52;86581.81;;;22.16;67.52
81151;BME280;70629;-26.026;27.976;2023-12-20T01:25:33;86587.75;;;21.95;67.63
81151;BME280;70629;-26.026;27.976;2023-12-20T01:26:12;86578.72;;;21.84;68.04
81151;BME280;70629;-26.026;27.976;2023-12-20T01:26:54;86582.41;;;22.07;67.89
81151;BME280;70629;-26.026;27.976;2023-12-20T01:27:33;86586.72;;;22.26;67.08
81151;BME280;70629;-26.026;27.976;2023-12-20T01:28:13;86586.06;;;22.29;67.32
81151;BME280;70629;-26.026;27.976;2023-12-20T01:28:53;86589.53;;;22.34;66.05
81151;BME280;70629;-26.026;27.976;2023-12-20T01:29:33;86586.84;;;22.42;66.05
81151;BME280;70629;-26.026;27.976;2023-12-20T01:30:13;86582.69;;;22.37;65.90
81151;BME280;70629;-26.026;27.976;2023-12-20T01:30:53;86588.06;;;22.25;66.40
81151;BME280;70629;-26.026;27.976;2023-12-20T01:31:33;86582.66;;;22.31;66.48
81151;BME280;70629;-26.026;27.976;2023-12-20T01:32:13;86581.38;;;22.42;65.77
81151;BME280;70629;-26.026;27.976;2023-12-20T01:32:52;86583.31;;;22.29;65.85
81151;BME280;70629;-26.026;27.976;2023-12-20T01:33:33;86577.16;;;22.31;66.14
81151;BME280;70629;-26.026;27.976;2023-12-20T01:34:13;86579.28;;;22.39;66.06
81151;BME280;70629;-26.026;27.976;2023-12-20T01:34:53;86573.13;;;22.38;65.76
81151;BME280;70629;-26.026;27.976;2023-12-20T01:35:37;86577.34;;;22.51;64.71
81151;BME280;70629;-26.026;27.976;2023-12-20T01:36:17;86573.84;;;22.41;64.70
81151;BME280;70629;-26.026;27.976;2023-12-20T01:36:57;86574.28;;;22.17;66.24
81151;BME280;70629;-26.026;27.976;2023-12-20T01:37:37;86564.75;;;22.24;66.81
81151;BME280;70629;-26.026;27.976;2023-12-20T01:38:17;86571.00;;;22.30;66.49
81151;BME280;70629;-26.026;27.976;2023-12-20T01:38:58;86569.66;;;22.31;65.99
81151;BME280;70629;-26.026;27.976;2023-12-20T01:39:37;86569.00;;;22.35;66.37
81151;BME280;70629;-26.026;27.976;2023-12-20T01:40:17;86570.97;;;22.26;65.81
81151;BME280;70629;-26.026;27.976;2023-12-20T01:40:57;86570.13;;;22.14;66.07
81151;BME280;70629;-26.026;27.976;2023-12-20T01:41:37;86566.25;;;22.37;65.81
81151;BME280;70629;-26.026;27.976;2023-12-20T01:42:18;86562.22;;;22.46;65.85
81151;BME280;70629;-26.026;27.976;2023-12-20T01:43:10;86561.59;;;22.52;64.19
81151;BME280;70629;-26.026;27.976;2023-12-20T01:43:51;86559.59;;;22.58;63.42
81151;BME280;70629;-26.026;27.976;2023-12-20T01:44:32;86563.59;;;22.47;63.36
81151;BME280;70629;-26.026;27.976;2023-12-20T01:45:12;86566.31;;;22.41;63.90
81151;BME280;70629;-26.026;27.976;2023-12-20T01:45:52;86564.06;;;22.21;64.02
81151;BME280;70629;-26.026;27.976;2023-12-20T01:46:32;86568.72;;;22.09;64.33
81151;BME280;70629;-26.026;27.976;2023-12-20T01:47:13;86562.63;;;22.12;64.68
81151;BME280;70629;-26.026;27.976;2023-12-20T01:47:54;86572.94;;;22.20;65.11
81151;BME280;70629;-26.026;27.976;2023-12-20T01:48:35;86564.81;;;22.30;64.26
81151;BME280;70629;-26.026;27.976;2023-12-20T01:49:15;86570.28;;;22.26;64.30
81151;BME280;70629;-26.026;27.976;2023-12-20T01:49:56;86573.44;;;22.00;65.59
81151;BME280;70629;-26.026;27.976;2023-12-20T01:50:36;86571.63;;;22.25;65.51
81151;BME280;70629;-26.026;27.976;2023-12-20T01:51:17;86566.19;;;22.29;64.63
81151;BME280;70629;-26.026;27.976;2023-12-20T01:51:57;86568.88;;;22.25;64.28
81151;BME280;70629;-26.026;27.976;2023-12-20T01:52:37;86563.97;;;22.13;64.98
81151;BME280;70629;-26.026;27.976;2023-12-20T01:53:19;86567.47;;;22.20;64.75
81151;BME280;70629;-26.026;27.976;2023-12-20T01:54:00;86559.38;;;22.34;64.84
81151;BME280;70629;-26.026;27.976;2023-12-20T01:54:41;86557.47;;;22.51;64.58
81151;BME280;70629;-26.026;27.976;2023-12-20T01:55:22;86559.53;;;22.52;64.75
81151;BME280;70629;-26.026;27.976;2023-12-20T01:56:02;86558.03;;;22.35;63.75
81151;BME280;70629;-26.026;27.976;2023-12-20T01:56:42;86563.47;;;22.31;64.81
81151;BME280;70629;-26.026;27.976;2023-12-20T01:57:22;86563.38;;;22.21;63.83
81151;BME280;70629;-26.026;27.976;2023-12-20T01:58:03;86557.84;;;22.15;64.66
81151;BME280;70629;-26.026;27.976;2023-12-20T01:58:45;86563.38;;;22.21;64.73
81151;BME280;70629;-26.026;27.976;2023-12-20T01:59:26;86564.75;;;22.24;64.44
81151;BME280;70629;-26.026;27.976;2023-12-20T02:00:06;86559.84;;;22.10;64.49
81151;BME280;70629;-26.026;27.976;2023-12-20T02:00:49;86567.94;;;22.00;65.13
81151;BME280;70629;-26.026;27.976;2023-12-20T02:01:29;86560.59;;;22.19;64.75
81151;BME280;70629;-26.026;27.976;2023-12-20T02:02:09;86568.84;;;22.23;64.55
81151;BME280;70629;-26.026;27.976;2023-12-20T02:02:53;86574.38;;;22.25;63.68
81151;BME280;70629;-26.026;27.976;2023-12-20T02:03:35;86574.31;;;22.19;64.36
81151;BME280;70629;-26.026;27.976;2023-12-20T02:04:16;86573.59;;;22.16;64.05
81151;BME280;70629;-26.026;27.976;2023-12-20T02:04:57;86574.84;;;22.05;64.63
81151;BME280;70629;-26.026;27.976;2023-12-20T02:05:38;86581.69;;;22.02;65.51
81151;BME280;70629;-26.026;27.976;2023-12-20T02:06:18;86580.97;;;22.02;65.31
81151;BME280;70629;-26.026;27.976;2023-12-20T02:07:02;86581.06;;;22.08;65.81
81151;BME280;70629;-26.026;27.976;2023-12-20T02:07:43;86575.44;;;21.94;66.54
81151;BME280;70629;-26.026;27.976;2023-12-20T02:08:23;86583.50;;;21.85;67.21
81151;BME280;70629;-26.026;27.976;2023-12-20T02:09:03;86587.63;;;21.86;66.52
81151;BME280;70629;-26.026;27.976;2023-12-20T02:09:43;86585.84;;;22.07;66.28
81151;BME280;70629;-26.026;27.976;2023-12-20T02:10:24;86583.81;;;22.10;65.97
81151;BME280;70629;-26.026;27.976;2023-12-20T02:11:04;86591.41;;;22.15;65.25
81151;BME280;70629;-26.026;27.976;2023-12-20T02:11:44;86584.50;;;22.10;66.19
81151;BME280;70629;-26.026;27.976;2023-12-20T02:12:23;86586.66;;;22.20;65.93
81151;BME280;70629;-26.026;27.976;2023-12-20T02:13:04;86580.44;;;22.15;66.14
81151;BME280;70629;-26.026;27.976;2023-12-20T02:13:44;86583.59;;;21.92;67.00
81151;BME280;70629;-26.026;27.976;2023-12-20T02:14:24;86585.16;;;22.07;66.83
81151;BME280;70629;-26.026;27.976;2023-12-20T02:15:04;86585.16;;;22.09;66.12
81151;BME280;70629;-26.026;27.976;2023-12-20T02:15:44;86582.44;;;22.11;65.92
81151;BME280;70629;-26.026;27.976;2023-12-20T02:16:24;86583.81;;;22.10;65.23
81151;BME280;70629;-26.026;27.976;2023-12-20T02:17:04;86579.47;;;21.90;66.24
81151;BME280;70629;-26.026;27.976;2023-12-20T02:17:45;86581.50;;;21.88;66.51
81151;BME280;70629;-26.026;27.976;2023-12-20T02:18:26;86586.22;;;21.81;66.26
81151;BME280;70629;-26.026;27.976;2023-12-20T02:19:13;86582.56;;;21.63;66.99
81151;BME280;70629;-26.026;27.976;2023-12-20T02:19:54;86584.59;;;21.60;66.70
81151;BME280;70629;-26.026;27.976;2023-12-20T02:20:34;86588.63;;;21.53;67.05
81151;BME280;70629;-26.026;27.976;2023-12-20T02:21:14;86588.13;;;21.69;66.69
81151;BME280;70629;-26.026;27.976;2023-12-20T02:22:47;86586.81;;;21.74;67.43
81151;BME280;70629;-26.026;27.976;2023-12-20T02:23:26;86588.78;;;21.67;67.55
81151;BME280;70629;-26.026;27.976;2023-12-20T02:24:06;86592.88;;;21.64;67.98
81151;BME280;70629;-26.026;27.976;2023-12-20T02:24:46;86587.44;;;21.68;68.52
81151;BME280;70629;-26.026;27.976;2023-12-20T02:25:26;86590.78;;;21.63;68.30
81151;BME280;70629;-26.026;27.976;2023-12-20T02:26:05;86589.47;;;21.66;68.14
81151;BME280;70629;-26.026;27.976;2023-12-20T02:26:46;86588.88;;;21.75;68.00
81151;BME280;70629;-26.026;27.976;2023-12-20T02:27:26;86590.91;;;21.73;67.77
81151;BME280;70629;-26.026;27.976;2023-12-20T02:28:07;86591.50;;;21.65;68.14
81151;BME280;70629;-26.026;27.976;2023-12-20T02:28:47;86592.88;;;21.66;67.53
81151;BME280;70629;-26.026;27.976;2023-12-20T02:29:27;86594.25;;;21.67;67.64
81151;BME280;70629;-26.026;27.976;2023-12-20T02:30:07;86598.47;;;21.74;67.58
81151;BME280;70629;-26.026;27.976;2023-12-20T02:30:47;86602.63;;;21.81;67.24
81151;BME280;70629;-26.026;27.976;2023-12-20T02:31:29;86599.91;;;21.81;66.82
81151;BME280;70629;-26.026;27.976;2023-12-20T02:32:08;86603.97;;;21.78;67.06
81151;BME280;70629;-26.026;27.976;2023-12-20T02:32:50;86606.13;;;21.86;67.17
81151;BME280;70629;-26.026;27.976;2023-12-20T02:33:31;86606.28;;;22.00;66.54
81151;BME280;70629;-26.026;27.976;2023-12-20T02:34:10;86611.53;;;21.80;66.79
81151;BME280;70629;-26.026;27.976;2023-12-20T02:34:50;86595.72;;;21.76;67.34
81151;BME280;70629;-26.026;27.976;2023-12-20T02:35:30;86601.66;;;21.57;68.04
81151;BME280;70629;-26.026;27.976;2023-12-20T02:36:10;86600.28;;;21.56;68.59
81151;BME280;70629;-26.026;27.976;2023-12-20T02:36:50;86596.88;;;21.57;68.46
81151;BME280;70629;-26.026;27.976;2023-12-20T02:37:30;86598.91;;;21.55;68.24
81151;BME280;70629;-26.026;27.976;2023-12-20T02:38:10;86596.44;;;21.77;67.75
81151;BME280;70629;-26.026;27.976;2023-12-20T02:38:50;86592.28;;;21.74;67.48
81151;BME280;70629;-26.026;27.976;2023-12-20T02:39:30;86589.00;;;21.85;67.10
81151;BME280;70629;-26.026;27.976;2023-12-20T02:40:10;86589.47;;;21.66;67.50
81151;BME280;70629;-26.026;27.976;2023-12-20T02:40:50;86592.22;;;21.66;68.38
81151;BME280;70629;-26.026;27.976;2023-12-20T02:41:30;86593.91;;;21.93;67.71
81151;BME280;70629;-26.026;27.976;2023-12-20T02:42:10;86595.16;;;21.86;67.81
81151;BME280;70629;-26.026;27.976;2023-12-20T02:42:49;86602.69;;;21.83;67.83
81151;BME280;70629;-26.026;27.976;2023-12-20T02:43:29;86602.06;;;21.89;67.19
81151;BME280;70629;-26.026;27.976;2023-12-20T02:44:09;86602.63;;;21.81;67.49
81151;BME280;70629;-26.026;27.976;2023-12-20T02:44:49;86610.19;;;21.85;67.08
81151;BME280;70629;-26.026;27.976;2023-12-20T02:45:28;86612.47;;;21.99;66.93
81151;BME280;70629;-26.026;27.976;2023-12-20T02:46:08;86611.72;;;21.94;67.05
81151;BME280;70629;-26.026;27.976;2023-12-20T02:46:48;86609.47;;;21.78;67.31
81151;BME280;70629;-26.026;27.976;2023-12-20T02:47:28;86616.25;;;21.73;67.41
81151;BME280;70629;-26.026;27.976;2023-12-20T02:48:09;86613.28;;;21.57;67.32
81151;BME280;70629;-26.026;27.976;2023-12-20T02:48:49;86607.97;;;21.69;67.41
81151;BME280;70629;-26.026;27.976;2023-12-20T02:49:29;86612.81;;;21.73;66.93
81151;BME280;70629;-26.026;27.976;2023-12-20T02:50:08;86606.56;;;21.64;67.51
81151;BME280;70629;-26.026;27.976;2023-12-20T02:50:48;86612.00;;;21.62;67.75
81151;BME280;70629;-26.026;27.976;2023-12-20T02:51:28;86613.94;;;21.54;67.50
81151;BME280;70629;-26.026;27.976;2023-12-20T02:52:08;86612.09;;;21.70;67.83
81151;BME280;70629;-26.026;27.976;2023-12-20T02:52:48;86609.91;;;21.59;67.84
81151;BME280;70629;-26.026;27.976;2023-12-20T02:53:28;86610.34;;;21.39;68.11
81151;BME280;70629;-26.026;27.976;2023-12-20T02:54:08;86611.13;;;21.48;68.06
81151;BME280;70629;-26.026;27.976;2023-12-20T02:54:47;86603.69;;;21.54;68.38
81151;BME280;70629;-26.026;27.976;2023-12-20T02:55:27;86603.81;;;21.64;68.82
81151;BME280;70629;-26.026;27.976;2023-12-20T02:56:07;86601.03;;;21.60;68.20
81151;BME280;70629;-26.026;27.976;2023-12-20T02:56:47;86605.22;;;21.67;67.77
81151;BME280;70629;-26.026;27.976;2023-12-20T02:57:27;86601.06;;;21.64;67.58
81151;BME280;70629;-26.026;27.976;2023-12-20T02:58:07;86597.72;;;21.70;67.33
81151;BME280;70629;-26.026;27.976;2023-12-20T02:58:47;86600.47;;;21.72;67.10
81151;BME280;70629;-26.026;27.976;2023-12-20T02:59:27;86602.59;;;21.77;67.36
81151;BME280;70629;-26.026;27.976;2023-12-20T03:00:10;86593.75;;;21.83;66.80
81151;BME280;70629;-26.026;27.976;2023-12-20T03:00:51;86593.75;;;21.83;66.31
81151;BME280;70629;-26.026;27.976;2023-12-20T03:01:31;86599.25;;;21.83;65.95
81151;BME280;70629;-26.026;27.976;2023-12-20T03:02:11;86591.69;;;21.79;66.39
81151;BME280;70629;-26.026;27.976;2023-12-20T03:02:51;86595.00;;;21.72;66.28
81151;BME280;70629;-26.026;27.976;2023-12-20T03:03:31;86594.25;;;21.65;66.74
81151;BME280;70629;-26.026;27.976;2023-12-20T03:04:12;86587.31;;;21.58;67.03
81151;BME280;70629;-26.026;27.976;2023-12-20T03:04:51;86587.84;;;21.44;68.04
81151;BME280;70629;-26.026;27.976;2023-12-20T03:05:33;86592.50;;;21.36;69.22
81151;BME280;70629;-26.026;27.976;2023-12-20T03:06:19;86588.25;;;21.23;69.67
81151;BME280;70629;-26.026;27.976;2023-12-20T03:06:59;86592.38;;;21.26;70.00
81151;BME280;70629;-26.026;27.976;2023-12-20T03:07:39;86585.69;;;21.37;68.88
81151;BME280;70629;-26.026;27.976;2023-12-20T03:08:18;86592.97;;;21.20;69.44
81151;BME280;70629;-26.026;27.976;2023-12-20T03:08:58;86590.34;;;21.28;69.33
81151;BME280;70629;-26.026;27.976;2023-12-20T03:09:38;86593.97;;;21.43;69.03
81151;BME280;70629;-26.026;27.976;2023-12-20T03:10:38;86591.34;;;21.53;68.27
81151;BME280;70629;-26.026;27.976;2023-12-20T03:11:18;86588.75;;;21.63;67.68
81151;BME280;70629;-26.026;27.976;2023-12-20T03:11:58;86584.50;;;21.52;67.90
81151;BME280;70629;-26.026;27.976;2023-12-20T03:12:37;86588.72;;;21.61;67.52
81151;BME280;70629;-26.026;27.976;2023-12-20T03:13:17;86585.31;;;21.63;67.37
81151;BME280;70629;-26.026;27.976;2023-12-20T03:13:57;86580.31;;;21.45;67.93
81151;BME280;70629;-26.026;27.976;2023-12-20T03:14:37;86581.69;;;21.46;67.96
81151;BME280;70629;-26.026;27.976;2023-12-20T03:15:17;86575.31;;;21.27;68.41
81151;BME280;70629;-26.026;27.976;2023-12-20T03:15:57;86587.50;;;21.20;68.73
81151;BME280;70629;-26.026;27.976;2023-12-20T03:16:37;86575.91;;;21.22;68.67
81151;BME280;70629;-26.026;27.976;2023-12-20T03:17:16;86575.97;;;21.26;68.91
81151;BME280;70629;-26.026;27.976;2023-12-20T03:17:56;86577.25;;;21.21;69.38
81151;BME280;70629;-26.026;27.976;2023-12-20T03:18:38;86579.41;;;21.28;68.75
81151;BME280;70629;-26.026;27.976;2023-12-20T03:19:19;86571.69;;;21.15;69.64
81151;BME280;70629;-26.026;27.976;2023-12-20T03:19:59;86576.06;;;21.32;69.10
81151;BME280;70629;-26.026;27.976;2023-12-20T03:20:39;86571.31;;;21.36;68.89
81151;BME280;70629;-26.026;27.976;2023-12-20T03:21:20;86576.31;;;21.54;68.33
81151;BME280;70629;-26.026;27.976;2023-12-20T03:22:00;86578.88;;;21.40;68.38
81151;BME280;70629;-26.026;27.976;2023-12-20T03:22:40;86584.13;;;21.24;68.78
81151;BME280;70629;-26.026;27.976;2023-12-20T03:23:19;86580.78;;;21.29;69.13
81151;BME280;70629;-26.026;27.976;2023-12-20T03:23:59;86586.13;;;21.17;69.28
81151;BME280;70629;-26.026;27.976;2023-12-20T03:24:39;86589.69;;;21.28;69.38
81151;BME280;70629;-26.026;27.976;2023-12-20T03:25:19;86591.34;;;21.53;68.26
81151;BME280;70629;-26.026;27.976;2023-12-20T03:26:00;86595.44;;;21.52;68.25
81151;BME280;70629;-26.026;27.976;2023-12-20T03:26:39;86594.94;;;21.68;67.79
81151;BME280;70629;-26.026;27.976;2023-12-20T03:27:19;86600.44;;;21.68;68.04
81151;BME280;70629;-26.026;27.976;2023-12-20T03:27:59;86603.59;;;21.48;68.74
81151;BME280;70629;-26.026;27.976;2023-12-20T03:28:39;86605.03;;;21.51;68.91